Time;durP1;ratioP1;P1;durP2;ratioP2;P2;SDS_P1;SDS_P2;PMS_P1;PMS_P2;Temp;Humidity;BMP_temperature;BMP_pressure;BME280_temperature;BME280_humidity;BME280_pressure;Samples;Min_cycle;Max_cycle;Signal;HPM_P1;HPM_P2
2023/07/25 00:00:04;;;;;;;;;;;14.10;99.90;;;;;;4996328;28;19925;-42
2023/07/25 00:02:31;;;;;;;;;;;14.00;99.90;;;;;;4978899;28;19922;-43
2023/07/25 00:04:58;;;;;;;;;;;14.00;99.90;;;;;;4992154;28;19922;-42
2023/07/25 00:07:24;;;;;;;;;;;14.10;99.90;;;;;;4994499;28;19976;-42
2023/07/25 00:09:52;;;;;;;;;;;14.00;99.90;;;;;;4993718;28;19926;-42
2023/07/25 00:12:20;;;;;;;;;;;14.10;99.90;;;;;;4994866;28;19969;-43
2023/07/25 00:14:46;;;;;;;;;;;14.00;99.90;;;;;;4994792;28;19929;-43
2023/07/25 00:17:13;;;;;;;;;;;14.00;99.90;;;;;;4978881;28;19925;-42
2023/07/25 00:19:39;;;;;;;;;;;14.00;99.90;;;;;;4994126;28;19961;-42
2023/07/25 00:22:06;;;;;;;;;;;14.00;99.90;;;;;;4994304;28;19922;-42
2023/07/25 00:24:33;;;;;;;;;;;13.90;99.90;;;;;;4995806;28;19922;-42
2023/07/25 00:26:59;;;;;;;;;;;13.90;99.90;;;;;;4995085;28;20336;-42
2023/07/25 00:29:27;;;;;;;;;;;13.90;99.90;;;;;;4994911;28;20019;-42
2023/07/25 00:31:54;;;;;;;;;;;13.90;99.90;;;;;;4994577;28;19921;-42
2023/07/25 00:34:21;;;;;;;;;;;13.90;99.90;;;;;;4994214;28;20429;-42
2023/07/25 00:36:47;;;;;;;;;;;13.80;99.90;;;;;;4977398;28;19984;-42
2023/07/25 00:39:14;;;;;;;;;;;13.90;99.90;;;;;;4994932;28;19928;-43
2023/07/25 00:41:41;;;;;;;;;;;13.80;99.90;;;;;;4993012;28;19929;-42
2023/07/25 00:44:08;;;;;;;;;;;13.70;99.90;;;;;;4993428;28;19921;-42
2023/07/25 00:46:36;;;;;;;;;;;13.70;99.90;;;;;;4994065;28;19926;-42
2023/07/25 00:49:02;;;;;;;;;;;13.70;99.90;;;;;;4977049;28;20432;-42
2023/07/25 00:51:29;;;;;;;;;;;13.70;99.90;;;;;;4978062;28;20138;-43
2023/07/25 00:53:56;;;;;;;;;;;13.60;99.90;;;;;;4993917;28;19921;-42
2023/07/25 00:56:22;;;;;;;;;;;13.60;99.90;;;;;;4993877;28;19969;-42
2023/07/25 00:58:49;;;;;;;;;;;13.60;99.90;;;;;;4993923;28;19921;-41
2023/07/25 01:01:16;;;;;;;;;;;13.60;99.90;;;;;;4994302;28;19921;-43
2023/07/25 01:03:44;;;;;;;;;;;13.60;99.90;;;;;;4977908;28;19925;-42
2023/07/25 01:06:12;;;;;;;;;;;13.50;99.90;;;;;;4993612;28;20282;-42
2023/07/25 01:08:47;;;;;;;;;;;13.50;99.90;;;;;;4993524;28;19928;-42
2023/07/25 01:11:13;;;;;;;;;;;13.50;99.90;;;;;;4993620;28;19937;-41
2023/07/25 01:13:40;;;;;;;;;;;13.50;99.90;;;;;;4976739;28;19925;-43
2023/07/25 01:16:07;;;;;;;;;;;13.40;99.90;;;;;;4977475;28;20556;-43
2023/07/25 01:18:33;;;;;;;;;;;13.40;99.90;;;;;;4976610;28;19976;-42
2023/07/25 01:21:02;;;;;;;;;;;13.40;99.90;;;;;;4994233;28;20275;-43
2023/07/25 01:23:29;;;;;;;;;;;13.30;99.90;;;;;;4992948;28;20282;-42
2023/07/25 01:25:57;;;;;;;;;;;13.30;99.90;;;;;;4993317;28;19926;-42
2023/07/25 01:28:24;;;;;;;;;;;13.30;99.90;;;;;;4976851;28;19922;-42
2023/07/25 01:30:50;;;;;;;;;;;13.30;99.90;;;;;;4976863;28;19922;-42
2023/07/25 01:33:17;;;;;;;;;;;13.30;99.90;;;;;;4975612;28;19929;-42
2023/07/25 01:35:44;;;;;;;;;;;13.20;99.90;;;;;;4993091;28;19933;-42
2023/07/25 01:38:11;;;;;;;;;;;13.20;99.90;;;;;;4976469;28;20329;-42
2023/07/25 01:40:39;;;;;;;;;;;13.20;99.90;;;;;;4993378;28;19928;-41
2023/07/25 01:43:07;;;;;;;;;;;13.20;99.90;;;;;;4994254;28;19921;-42
2023/07/25 01:45:34;;;;;;;;;;;13.20;99.90;;;;;;4992659;28;19921;-42
2023/07/25 01:48:00;;;;;;;;;;;13.20;99.90;;;;;;4976066;28;19926;-42
2023/07/25 01:50:27;;;;;;;;;;;13.20;99.90;;;;;;4975720;28;20049;-42
2023/07/25 01:52:54;;;;;;;;;;;13.20;99.90;;;;;;4992466;28;19921;-43
2023/07/25 01:55:21;;;;;;;;;;;13.10;99.90;;;;;;4977130;28;19922;-42
2023/07/25 01:57:48;;;;;;;;;;;13.10;99.90;;;;;;4992879;28;19972;-42
2023/07/25 02:00:16;;;;;;;;;;;13.10;99.90;;;;;;4975467;28;19921;-42
2023/07/25 02:02:42;;;;;;;;;;;13.20;99.90;;;;;;4992757;28;19957;-43
2023/07/25 02:05:09;;;;;;;;;;;13.10;99.90;;;;;;4975181;28;20028;-43
2023/07/25 02:07:36;;;;;;;;;;;13.10;99.90;;;;;;4976883;28;20015;-42
2023/07/25 02:10:03;;;;;;;;;;;13.10;99.90;;;;;;4975356;28;19929;-42
2023/07/25 02:12:30;;;;;;;;;;;13.10;99.90;;;;;;4992594;28;19925;-43
2023/07/25 02:14:56;;;;;;;;;;;13.10;99.90;;;;;;4975507;28;19928;-42
2023/07/25 02:17:24;;;;;;;;;;;13.10;99.90;;;;;;4975631;28;20259;-42
2023/07/25 02:19:51;;;;;;;;;;;13.10;99.90;;;;;;4976536;28;19929;-42
2023/07/25 02:22:18;;;;;;;;;;;13.00;99.90;;;;;;4975499;28;19965;-42
2023/07/25 02:24:44;;;;;;;;;;;13.00;99.90;;;;;;4992880;28;19930;-42
2023/07/25 02:27:11;;;;;;;;;;;13.00;99.90;;;;;;4990202;28;19968;-42
2023/07/25 02:29:38;;;;;;;;;;;13.00;99.90;;;;;;4990695;28;19925;-42
2023/07/25 02:32:05;;;;;;;;;;;13.00;99.90;;;;;;4993306;28;19968;-42
2023/07/25 02:34:33;;;;;;;;;;;13.00;99.90;;;;;;4975178;28;20358;-42
2023/07/25 02:37:00;;;;;;;;;;;13.00;99.90;;;;;;4992259;28;19926;-42
2023/07/25 02:39:26;;;;;;;;;;;13.00;99.90;;;;;;4976090;28;19975;-42
2023/07/25 02:41:53;;;;;;;;;;;13.00;99.90;;;;;;4976272;28;20341;-42
2023/07/25 02:44:20;;;;;;;;;;;13.00;99.90;;;;;;4990165;28;19944;-42
2023/07/25 02:46:46;;;;;;;;;;;13.00;99.90;;;;;;4993018;28;19954;-43
2023/07/25 02:49:13;;;;;;;;;;;13.00;99.90;;;;;;4991331;28;19928;-41
2023/07/25 02:51:41;;;;;;;;;;;13.00;99.90;;;;;;4992256;28;20341;-42
2023/07/25 02:54:08;;;;;;;;;;;13.00;99.90;;;;;;4991760;28;19921;-42
2023/07/25 02:56:34;;;;;;;;;;;13.00;99.90;;;;;;4975915;28;20392;-42
2023/07/25 02:59:01;;;;;;;;;;;13.00;99.90;;;;;;4991507;28;19929;-42
2023/07/25 03:01:28;;;;;;;;;;;13.00;99.90;;;;;;4992300;28;19922;-42
2023/07/25 03:03:54;;;;;;;;;;;13.00;99.90;;;;;;4974719;28;20381;-42
2023/07/25 03:06:21;;;;;;;;;;;12.90;99.90;;;;;;4994897;28;19926;-42
2023/07/25 03:08:49;;;;;;;;;;;12.90;99.90;;;;;;4997250;28;19936;-42
2023/07/25 03:11:16;;;;;;;;;;;12.90;99.90;;;;;;4995765;28;20378;-43
2023/07/25 03:13:43;;;;;;;;;;;12.90;99.90;;;;;;4978780;28;19929;-42
2023/07/25 03:16:09;;;;;;;;;;;12.90;99.90;;;;;;4995076;28;19922;-42
2023/07/25 03:18:36;;;;;;;;;;;12.90;99.90;;;;;;4995076;28;19928;-42
2023/07/25 03:21:03;;;;;;;;;;;12.90;99.90;;;;;;4995589;28;19921;-42
2023/07/25 03:23:29;;;;;;;;;;;12.90;99.90;;;;;;4995822;28;19925;-42
2023/07/25 03:25:57;;;;;;;;;;;12.90;99.90;;;;;;4995695;28;19964;-42
2023/07/25 03:28:24;;;;;;;;;;;12.90;99.90;;;;;;4995558;28;20457;-42
2023/07/25 03:30:51;;;;;;;;;;;12.90;99.90;;;;;;4995270;28;19922;-42
2023/07/25 03:33:17;;;;;;;;;;;13.00;99.90;;;;;;4996451;28;19922;-42
2023/07/25 03:35:44;;;;;;;;;;;13.00;99.90;;;;;;4979222;28;19925;-41
2023/07/25 03:38:11;;;;;;;;;;;13.00;99.90;;;;;;4995512;28;19976;-42
2023/07/25 03:40:37;;;;;;;;;;;13.00;99.90;;;;;;4978434;28;19976;-41
2023/07/25 03:43:05;;;;;;;;;;;13.10;99.90;;;;;;4995404;28;19925;-42
2023/07/25 03:45:32;;;;;;;;;;;13.10;99.90;;;;;;4994948;28;20378;-42
2023/07/25 03:47:59;;;;;;;;;;;13.10;99.90;;;;;;4996016;28;19925;-42
2023/07/25 03:50:26;;;;;;;;;;;13.10;99.90;;;;;;4995116;28;19928;-42
2023/07/25 03:52:52;;;;;;;;;;;13.10;99.90;;;;;;4994948;28;20313;-42
2023/07/25 03:55:19;;;;;;;;;;;13.10;99.90;;;;;;4996262;28;19929;-42
2023/07/25 03:57:46;;;;;;;;;;;13.10;99.90;;;;;;4994038;28;20290;-42
2023/07/25 04:00:14;;;;;;;;;;;13.10;99.90;;;;;;4995168;28;19926;-42
2023/07/25 04:02:41;;;;;;;;;;;13.10;99.90;;;;;;4994508;28;20325;-42
2023/07/25 04:05:08;;;;;;;;;;;13.10;99.90;;;;;;4995037;28;19925;-42
2023/07/25 04:07:35;;;;;;;;;;;13.10;99.90;;;;;;4996177;28;19921;-43
2023/07/25 04:10:01;;;;;;;;;;;13.10;99.90;;;;;;4994551;28;20451;-42
2023/07/25 04:12:28;;;;;;;;;;;13.10;99.90;;;;;;4975347;28;19921;-43
2023/07/25 04:14:55;;;;;;;;;;;13.10;99.90;;;;;;4985654;28;19961;-42
2023/07/25 04:17:23;;;;;;;;;;;13.10;99.90;;;;;;4993772;28;20356;-42
2023/07/25 04:19:49;;;;;;;;;;;13.10;99.90;;;;;;4977648;28;19922;-42
2023/07/25 04:22:16;;;;;;;;;;;13.10;99.90;;;;;;4995856;28;19922;-42
2023/07/25 04:24:43;;;;;;;;;;;13.10;99.90;;;;;;4977748;28;19968;-43
2023/07/25 04:27:09;;;;;;;;;;;13.10;99.90;;;;;;4977239;28;20293;-42
2023/07/25 04:29:36;;;;;;;;;;;13.10;99.90;;;;;;4994507;28;19922;-41
2023/07/25 04:32:03;;;;;;;;;;;13.10;99.90;;;;;;4994520;28;20190;-42
2023/07/25 04:34:31;;;;;;;;;;;13.10;99.90;;;;;;4995793;28;20342;-42
2023/07/25 04:36:58;;;;;;;;;;;13.10;99.90;;;;;;4994385;28;19922;-41
2023/07/25 04:39:24;;;;;;;;;;;13.10;99.90;;;;;;4994189;28;19929;-41
2023/07/25 04:41:51;;;;;;;;;;;13.10;99.90;;;;;;4993851;28;19921;-41
2023/07/25 04:44:18;;;;;;;;;;;13.20;99.90;;;;;;4976054;28;19969;-42
2023/07/25 04:46:44;;;;;;;;;;;13.20;99.90;;;;;;4995469;28;20345;-42
2023/07/25 04:49:12;;;;;;;;;;;13.20;99.90;;;;;;4994020;28;19922;-42
2023/07/25 04:51:40;;;;;;;;;;;13.20;99.90;;;;;;4994828;28;20373;-42
2023/07/25 04:54:07;;;;;;;;;;;13.20;99.90;;;;;;4970280;28;19928;-42
2023/07/25 04:56:33;;;;;;;;;;;13.30;99.90;;;;;;4978139;28;19925;-42
2023/07/25 04:59:00;;;;;;;;;;;13.30;99.90;;;;;;4977863;28;19945;-43
2023/07/25 05:01:27;;;;;;;;;;;13.30;99.90;;;;;;4959917;28;19930;-42
2023/07/25 05:03:54;;;;;;;;;;;13.40;99.90;;;;;;4988115;28;20309;-42
2023/07/25 05:06:21;;;;;;;;;;;13.40;99.90;;;;;;4977025;28;19929;-43
2023/07/25 05:08:49;;;;;;;;;;;13.50;99.90;;;;;;4976905;28;19929;-42
2023/07/25 05:11:15;;;;;;;;;;;13.60;99.90;;;;;;4994769;28;19965;-43
2023/07/25 05:13:42;;;;;;;;;;;13.70;99.90;;;;;;4993588;28;19926;-42
2023/07/25 05:16:09;;;;;;;;;;;13.80;99.90;;;;;;4976721;28;19925;-41
2023/07/25 05:18:35;;;;;;;;;;;13.80;99.90;;;;;;4973519;28;19929;-43
2023/07/25 05:21:02;;;;;;;;;;;13.90;99.90;;;;;;4979321;28;20444;-41
2023/07/25 05:23:29;;;;;;;;;;;14.00;99.90;;;;;;4994647;28;19926;-41
2023/07/25 05:25:57;;;;;;;;;;;14.00;99.90;;;;;;4993080;28;20019;-42
2023/07/25 05:28:24;;;;;;;;;;;14.00;99.90;;;;;;4961162;28;19922;-41
2023/07/25 05:30:50;;;;;;;;;;;14.10;99.90;;;;;;4988363;28;20048;-41
2023/07/25 05:33:17;;;;;;;;;;;14.10;99.90;;;;;;4976239;28;20297;-41
2023/07/25 05:35:44;;;;;;;;;;;14.10;99.90;;;;;;4976247;28;19933;-41
2023/07/25 05:38:10;;;;;;;;;;;14.10;99.90;;;;;;4975200;28;20301;-42
2023/07/25 05:40:37;;;;;;;;;;;14.20;99.90;;;;;;4972893;28;19929;-42
2023/07/25 05:43:05;;;;;;;;;;;14.30;99.90;;;;;;4993040;28;20437;-42
2023/07/25 05:45:32;;;;;;;;;;;14.40;99.90;;;;;;4992265;28;19936;-42
2023/07/25 05:47:59;;;;;;;;;;;14.50;99.90;;;;;;4992438;28;20325;-42
2023/07/25 05:50:25;;;;;;;;;;;14.60;99.90;;;;;;4993983;28;19925;-42
2023/07/25 05:52:52;;;;;;;;;;;14.70;99.90;;;;;;4992861;28;19941;-42
2023/07/25 05:55:19;;;;;;;;;;;14.80;99.90;;;;;;4992626;28;19922;-42
2023/07/25 05:57:45;;;;;;;;;;;14.80;99.90;;;;;;4975583;28;19921;-42
2023/07/25 06:00:14;;;;;;;;;;;14.90;99.90;;;;;;4974771;28;19925;-42
2023/07/25 06:02:41;;;;;;;;;;;15.00;99.90;;;;;;4994185;28;20274;-43
2023/07/25 06:05:07;;;;;;;;;;;15.10;99.90;;;;;;4993128;28;19925;-43
2023/07/25 06:07:34;;;;;;;;;;;15.10;99.90;;;;;;4992704;28;19922;-43
2023/07/25 06:10:01;;;;;;;;;;;15.20;99.90;;;;;;4970675;28;20369;-42
2023/07/25 06:12:27;;;;;;;;;;;15.40;99.90;;;;;;4992665;28;19925;-43
2023/07/25 06:14:54;;;;;;;;;;;15.40;99.90;;;;;;4993575;28;19922;-42
2023/07/25 06:17:22;;;;;;;;;;;15.50;99.90;;;;;;4974960;28;19925;-42
2023/07/25 06:19:49;;;;;;;;;;;15.50;99.90;;;;;;4963122;28;19922;-43
2023/07/25 06:22:15;;;;;;;;;;;15.60;99.90;;;;;;4981540;28;19928;-42
2023/07/25 06:24:42;;;;;;;;;;;15.70;99.90;;;;;;4989840;28;20212;-42
2023/07/25 06:27:09;;;;;;;;;;;15.70;99.90;;;;;;4992267;28;19929;-44
2023/07/25 06:29:35;;;;;;;;;;;15.80;99.90;;;;;;4975970;28;20327;-43
2023/07/25 06:32:02;;;;;;;;;;;15.90;99.90;;;;;;4976269;28;20627;-42
2023/07/25 06:34:30;;;;;;;;;;;15.90;99.90;;;;;;4975868;28;19922;-43
2023/07/25 06:36:57;;;;;;;;;;;16.00;99.90;;;;;;4993455;28;19933;-44
2023/07/25 06:39:24;;;;;;;;;;;16.10;99.90;;;;;;4993180;28;19921;-44
2023/07/25 06:41:51;;;;;;;;;;;16.20;99.90;;;;;;4988435;28;20282;-42
2023/07/25 06:44:19;;;;;;;;;;;16.30;99.90;;;;;;4956490;28;20342;-44
2023/07/25 06:46:45;;;;;;;;;;;16.30;99.90;;;;;;4956861;28;20416;-43
2023/07/25 06:49:12;;;;;;;;;;;16.40;99.90;;;;;;4973803;28;19922;-43
2023/07/25 06:51:40;;;;;;;;;;;16.50;99.90;;;;;;4979064;28;19988;-43
2023/07/25 06:54:07;;;;;;;;;;;16.60;99.90;;;;;;4993346;28;19944;-43
2023/07/25 06:56:33;;;;;;;;;;;16.70;99.90;;;;;;4975617;28;19922;-44
2023/07/25 06:59:00;;;;;;;;;;;16.80;99.90;;;;;;4993103;28;19926;-43
2023/07/25 07:01:27;;;;;;;;;;;16.80;99.90;;;;;;4992687;28;19945;-43
2023/07/25 07:03:54;;;;;;;;;;;16.80;99.90;;;;;;4993147;28;19929;-44
2023/07/25 07:06:21;;;;;;;;;;;16.80;99.90;;;;;;4991611;28;19928;-44
2023/07/25 07:08:49;;;;;;;;;;;16.90;99.90;;;;;;4993103;28;19922;-43
2023/07/25 07:11:16;;;;;;;;;;;17.00;99.90;;;;;;4992779;28;20267;-43
2023/07/25 07:13:42;;;;;;;;;;;17.10;99.90;;;;;;4993122;28;20283;-43
2023/07/25 07:16:09;;;;;;;;;;;17.30;99.90;;;;;;4992833;28;20016;-43
2023/07/25 07:18:36;;;;;;;;;;;17.40;99.90;;;;;;4974396;28;20447;-43
2023/07/25 07:21:03;;;;;;;;;;;17.50;99.90;;;;;;4993066;28;19932;-44
2023/07/25 07:23:30;;;;;;;;;;;17.70;99.90;;;;;;4991080;28;19921;-43
2023/07/25 07:25:58;;;;;;;;;;;17.80;99.90;;;;;;4991532;28;19922;-42
2023/07/25 07:28:24;;;;;;;;;;;18.00;99.90;;;;;;4975555;28;19925;-42
2023/07/25 07:30:51;;;;;;;;;;;18.10;99.90;;;;;;4992875;28;20250;-42
2023/07/25 07:33:18;;;;;;;;;;;18.20;99.90;;;;;;4990158;28;20379;-43
2023/07/25 07:35:45;;;;;;;;;;;18.30;99.90;;;;;;4992268;28;20373;-43
2023/07/25 07:38:12;;;;;;;;;;;18.30;99.90;;;;;;4990976;28;20390;-42
2023/07/25 07:40:38;;;;;;;;;;;18.40;99.90;;;;;;4991509;28;19922;-41
2023/07/25 07:43:06;;;;;;;;;;;18.40;99.90;;;;;;4991016;28;20384;-43
2023/07/25 07:45:33;;;;;;;;;;;18.40;99.90;;;;;;4991719;28;19933;-42
2023/07/25 07:48:00;;;;;;;;;;;18.50;99.90;;;;;;4974911;28;19984;-44
2023/07/25 07:50:29;;;;;;;;;;;18.60;99.90;;;;;;4974502;28;19932;-43
2023/07/25 07:52:56;;;;;;;;;;;18.60;99.90;;;;;;4979245;28;20444;-42
2023/07/25 07:55:22;;;;;;;;;;;18.60;99.90;;;;;;4995297;28;19922;-43
2023/07/25 07:57:49;;;;;;;;;;;18.70;99.90;;;;;;4995004;28;19976;-43
2023/07/25 08:00:18;;;;;;;;;;;18.90;99.90;;;;;;4995018;28;20389;-43
2023/07/25 08:02:45;;;;;;;;;;;19.10;99.90;;;;;;4978068;28;19933;-43
2023/07/25 08:05:11;;;;;;;;;;;19.10;99.90;;;;;;4995931;28;20436;-43
2023/07/25 08:07:38;;;;;;;;;;;19.40;99.90;;;;;;4993210;28;19921;-43
2023/07/25 08:10:05;;;;;;;;;;;19.60;99.90;;;;;;4977774;28;19922;-43
2023/07/25 08:12:32;;;;;;;;;;;19.70;99.90;;;;;;4977724;28;19964;-43
2023/07/25 08:14:59;;;;;;;;;;;19.70;99.90;;;;;;4994829;28;19929;-43
2023/07/25 08:17:27;;;;;;;;;;;19.50;99.90;;;;;;4978726;28;19928;-43
2023/07/25 08:19:54;;;;;;;;;;;19.50;99.90;;;;;;4994313;28;20428;-43
2023/07/25 08:22:20;;;;;;;;;;;19.50;99.90;;;;;;4994670;28;19936;-42
2023/07/25 08:24:47;;;;;;;;;;;19.60;99.90;;;;;;4994492;28;19922;-43
2023/07/25 08:27:14;;;;;;;;;;;19.70;99.90;;;;;;4977418;28;19926;-43
2023/07/25 08:29:40;;;;;;;;;;;20.00;99.90;;;;;;4995999;28;19929;-43
2023/07/25 08:32:09;;;;;;;;;;;20.10;99.90;;;;;;4994815;28;19922;-43
2023/07/25 08:34:37;;;;;;;;;;;20.30;99.90;;;;;;4995799;28;19993;-43
2023/07/25 08:37:04;;;;;;;;;;;20.40;99.90;;;;;;4993645;28;19925;-43
2023/07/25 08:39:31;;;;;;;;;;;20.60;99.90;;;;;;4994405;28;20382;-43
2023/07/25 08:41:58;;;;;;;;;;;20.80;99.90;;;;;;4978176;28;19921;-43
2023/07/25 08:44:25;;;;;;;;;;;20.80;99.90;;;;;;4995543;28;20046;-43
2023/07/25 08:46:52;;;;;;;;;;;20.90;99.90;;;;;;4992901;28;20444;-43
2023/07/25 08:49:21;;;;;;;;;;;21.10;99.90;;;;;;4993827;28;19922;-44
2023/07/25 08:51:50;;;;;;;;;;;21.30;99.90;;;;;;4995001;28;19921;-42
2023/07/25 08:54:17;;;;;;;;;;;21.50;99.90;;;;;;4978124;28;20297;-44
2023/07/25 08:56:44;;;;;;;;;;;21.70;99.70;;;;;;4977471;28;20481;-42
2023/07/25 08:59:11;;;;;;;;;;;21.90;99.20;;;;;;4978024;28;19965;-43
2023/07/25 09:01:37;;;;;;;;;;;22.00;98.30;;;;;;4994112;28;19922;-44
2023/07/25 09:04:04;;;;;;;;;;;22.10;99.10;;;;;;4994180;28;19926;-42
2023/07/25 09:06:31;;;;;;;;;;;22.20;98.60;;;;;;4994845;28;20437;-43
2023/07/25 09:08:59;;;;;;;;;;;22.40;98.40;;;;;;4994777;28;20409;-43
2023/07/25 09:11:26;;;;;;;;;;;22.50;96.60;;;;;;4992605;28;19925;-43
2023/07/25 09:13:53;;;;;;;;;;;22.40;95.90;;;;;;4977612;28;20392;-43
2023/07/25 09:16:20;;;;;;;;;;;22.20;95.40;;;;;;4977089;28;20400;-43
2023/07/25 09:18:46;;;;;;;;;;;21.90;95.10;;;;;;4994896;28;19972;-43
2023/07/25 09:21:13;;;;;;;;;;;21.70;96.10;;;;;;4977321;28;19922;-43
2023/07/25 09:23:41;;;;;;;;;;;21.70;97.20;;;;;;4993019;28;19942;-43
2023/07/25 09:26:11;;;;;;;;;;;21.70;97.30;;;;;;4994906;28;19991;-43
2023/07/25 09:28:47;;;;;;;;;;;21.80;96.30;;;;;;4993579;28;19921;-43
2023/07/25 09:31:14;;;;;;;;;;;22.00;95.20;;;;;;4977399;28;19930;-42
2023/07/25 09:33:41;;;;;;;;;;;22.20;95.10;;;;;;4994729;28;19921;-43
2023/07/25 09:36:07;;;;;;;;;;;22.40;95.10;;;;;;4965361;28;19922;-43
2023/07/25 09:38:34;;;;;;;;;;;22.50;95.90;;;;;;4975684;28;19925;-43
2023/07/25 09:41:02;;;;;;;;;;;22.50;94.30;;;;;;4977402;28;19994;-43
2023/07/25 09:43:30;;;;;;;;;;;22.50;94.90;;;;;;4977339;28;19969;-43
2023/07/25 09:45:57;;;;;;;;;;;22.40;94.80;;;;;;4994608;28;19984;-43
2023/07/25 09:48:23;;;;;;;;;;;22.50;95.40;;;;;;4976283;28;20396;-43
2023/07/25 09:50:50;;;;;;;;;;;22.80;94.30;;;;;;4993848;28;19929;-42
2023/07/25 09:53:17;;;;;;;;;;;22.80;91.30;;;;;;4994012;28;20392;-43
2023/07/25 09:55:44;;;;;;;;;;;22.90;92.70;;;;;;4994367;28;19996;-43
2023/07/25 09:58:11;;;;;;;;;;;23.00;91.00;;;;;;4994093;28;19929;-44
2023/07/25 10:00:40;;;;;;;;;;;23.10;92.60;;;;;;4993077;28;19976;-43
2023/07/25 10:03:08;;;;;;;;;;;23.30;92.70;;;;;;4993868;28;19921;-42
2023/07/25 10:05:35;;;;;;;;;;;23.50;91.70;;;;;;4993894;28;19922;-43
2023/07/25 10:08:01;;;;;;;;;;;23.70;87.80;;;;;;4992943;28;19980;-43
2023/07/25 10:10:28;;;;;;;;;;;23.70;90.40;;;;;;4976784;28;20170;-43
2023/07/25 10:12:55;;;;;;;;;;;23.70;89.20;;;;;;4976223;28;19968;-43
2023/07/25 10:15:22;;;;;;;;;;;23.60;91.80;;;;;;4976427;28;19973;-44
2023/07/25 10:17:50;;;;;;;;;;;23.80;91.60;;;;;;4992568;28;20373;-43
2023/07/25 10:20:20;;;;;;;;;;;23.70;90.30;;;;;;4993546;28;20425;-43
2023/07/25 10:22:47;;;;;;;;;;;23.60;90.40;;;;;;4993995;28;19922;-43
2023/07/25 10:25:18;;;;;;;;;;;23.50;89.10;;;;;;4993914;28;19926;-43
2023/07/25 10:27:44;;;;;;;;;;;23.40;89.60;;;;;;4975393;28;19926;-43
2023/07/25 10:30:21;;;;;;;;;;;23.40;91.00;;;;;;4993728;28;19926;-44
2023/07/25 10:32:48;;;;;;;;;;;23.40;90.50;;;;;;4975819;28;20009;-44
2023/07/25 10:35:16;;;;;;;;;;;23.30;91.00;;;;;;4993396;28;19933;-43
2023/07/25 10:37:43;;;;;;;;;;;23.20;88.70;;;;;;4976530;28;19969;-44
2023/07/25 10:40:10;;;;;;;;;;;23.30;91.80;;;;;;4975042;28;20358;-43
2023/07/25 10:42:49;;;;;;;;;;;23.50;90.10;;;;;;4993339;28;19928;-44
2023/07/25 10:45:22;;;;;;;;;;;23.70;91.50;;;;;;4993430;28;20400;-44
2023/07/25 10:47:49;;;;;;;;;;;23.90;89.70;;;;;;4991801;28;19925;-44
2023/07/25 10:50:21;;;;;;;;;;;23.90;82.30;;;;;;4993626;28;19928;-43
2023/07/25 10:52:47;;;;;;;;;;;23.70;84.80;;;;;;4993087;28;19922;-43
2023/07/25 10:55:14;;;;;;;;;;;23.50;88.80;;;;;;4974492;28;19929;-43
2023/07/25 10:57:41;;;;;;;;;;;23.40;87.20;;;;;;4993285;28;19944;-43
2023/07/25 11:00:08;;;;;;;;;;;23.40;87.60;;;;;;4993083;28;20361;-43
2023/07/25 11:02:35;;;;;;;;;;;23.60;84.30;;;;;;4991548;28;19928;-41
2023/07/25 11:05:25;;;;;;;;;;;23.70;87.80;;;;;;4993152;28;20012;-42
2023/07/25 11:07:53;;;;;;;;;;;23.80;86.50;;;;;;4992000;28;19925;-43
2023/07/25 11:10:20;;;;;;;;;;;23.80;87.80;;;;;;4990715;28;20279;-43
2023/07/25 11:12:48;;;;;;;;;;;23.80;90.20;;;;;;4986951;28;19922;-43
2023/07/25 11:15:14;;;;;;;;;;;23.90;90.20;;;;;;4972874;28;20464;-42
2023/07/25 11:17:41;;;;;;;;;;;23.90;84.70;;;;;;4969511;28;20368;-43
2023/07/25 11:20:11;;;;;;;;;;;23.70;86.60;;;;;;4970840;28;19922;-44
2023/07/25 11:22:39;;;;;;;;;;;23.60;86.20;;;;;;4973387;28;19969;-43
2023/07/25 11:25:07;;;;;;;;;;;23.70;89.40;;;;;;4959253;28;19922;-42
2023/07/25 11:27:34;;;;;;;;;;;23.70;89.40;;;;;;4991909;28;19934;-43
2023/07/25 11:30:08;;;;;;;;;;;23.90;86.00;;;;;;4994693;28;19976;-43
2023/07/25 11:32:35;;;;;;;;;;;24.20;87.10;;;;;;4978932;28;19972;-43
2023/07/25 11:35:02;;;;;;;;;;;24.30;87.20;;;;;;4995828;28;19945;-42
2023/07/25 11:37:29;;;;;;;;;;;24.40;84.50;;;;;;4979756;28;20005;-44
2023/07/25 11:39:57;;;;;;;;;;;24.60;85.70;;;;;;4978932;28;20357;-43
2023/07/25 11:42:23;;;;;;;;;;;24.70;83.60;;;;;;4995484;28;19922;-44
2023/07/25 11:44:51;;;;;;;;;;;24.90;85.90;;;;;;4996467;28;19976;-43
2023/07/25 11:47:18;;;;;;;;;;;25.00;81.10;;;;;;4995256;28;19921;-43
2023/07/25 11:49:44;;;;;;;;;;;24.90;80.70;;;;;;4996528;28;19933;-43
2023/07/25 11:52:11;;;;;;;;;;;24.60;80.00;;;;;;4995896;28;20361;-44
2023/07/25 11:54:38;;;;;;;;;;;24.20;82.80;;;;;;4996449;28;19929;-43
2023/07/25 11:57:06;;;;;;;;;;;23.90;83.50;;;;;;4979270;28;20329;-44
2023/07/25 11:59:39;;;;;;;;;;;23.80;82.50;;;;;;4977828;28;19928;-43
2023/07/25 12:02:06;;;;;;;;;;;23.50;81.30;;;;;;4977775;28;19932;-43
2023/07/25 12:04:32;;;;;;;;;;;23.30;84.60;;;;;;4996030;28;19921;-43
2023/07/25 12:06:59;;;;;;;;;;;23.30;86.30;;;;;;4996504;28;19929;-43
2023/07/25 12:09:28;;;;;;;;;;;23.20;83.90;;;;;;4995647;28;20032;-43
2023/07/25 12:11:54;;;;;;;;;;;23.10;86.80;;;;;;4995542;28;19980;-43
2023/07/25 12:14:22;;;;;;;;;;;23.20;87.20;;;;;;4995786;28;20370;-43
2023/07/25 12:16:49;;;;;;;;;;;23.40;88.20;;;;;;4993973;28;20010;-43
2023/07/25 12:19:16;;;;;;;;;;;23.50;86.20;;;;;;4977592;28;19988;-44
2023/07/25 12:21:43;;;;;;;;;;;23.60;81.50;;;;;;4978734;28;19981;-44
2023/07/25 12:24:10;;;;;;;;;;;23.50;85.30;;;;;;4994660;28;19925;-43
2023/07/25 12:26:43;;;;;;;;;;;23.50;85.10;;;;;;4994617;28;19921;-43
2023/07/25 12:29:12;;;;;;;;;;;23.60;85.20;;;;;;4994901;28;19965;-44
2023/07/25 12:31:40;;;;;;;;;;;23.60;82.60;;;;;;4980959;28;19922;-43
2023/07/25 12:34:07;;;;;;;;;;;23.70;83.50;;;;;;4994450;28;19928;-44
2023/07/25 12:36:34;;;;;;;;;;;23.70;83.00;;;;;;4995605;28;19969;-43
2023/07/25 12:39:00;;;;;;;;;;;23.80;85.00;;;;;;4977541;28;19934;-43
2023/07/25 12:41:27;;;;;;;;;;;23.80;84.70;;;;;;4994783;28;19937;-43
2023/07/25 12:43:54;;;;;;;;;;;24.00;83.50;;;;;;4977033;28;19929;-43
2023/07/25 12:46:21;;;;;;;;;;;24.10;82.80;;;;;;4993196;28;19977;-42
2023/07/25 12:48:49;;;;;;;;;;;24.30;85.00;;;;;;4995247;28;19922;-43
2023/07/25 12:51:15;;;;;;;;;;;24.40;79.90;;;;;;4977244;28;19921;-44
2023/07/25 12:53:42;;;;;;;;;;;24.40;82.50;;;;;;4993802;28;19922;-44
2023/07/25 12:56:09;;;;;;;;;;;24.30;82.00;;;;;;4993535;28;19929;-43
2023/07/25 12:58:35;;;;;;;;;;;24.10;79.10;;;;;;4976895;28;20413;-44
2023/07/25 13:01:03;;;;;;;;;;;23.90;77.10;;;;;;4995184;28;19976;-44
2023/07/25 13:03:30;;;;;;;;;;;23.70;80.90;;;;;;4994263;28;20290;-44
2023/07/25 13:05:58;;;;;;;;;;;23.40;79.50;;;;;;4975644;28;19926;-43
2023/07/25 13:08:25;;;;;;;;;;;23.20;79.10;;;;;;4994876;28;19932;-43
2023/07/25 13:10:52;;;;;;;;;;;23.00;82.00;;;;;;4975554;28;19929;-43
2023/07/25 13:13:19;;;;;;;;;;;22.90;80.90;;;;;;4987386;28;19968;-43
2023/07/25 13:15:46;;;;;;;;;;;22.80;81.10;;;;;;4994075;28;19921;-43
2023/07/25 13:18:12;;;;;;;;;;;22.70;82.30;;;;;;4976801;28;20051;-44
2023/07/25 13:20:39;;;;;;;;;;;22.60;82.70;;;;;;4994745;28;19922;-42
2023/07/25 13:23:09;;;;;;;;;;;22.50;82.60;;;;;;4992967;28;20398;-44
2023/07/25 13:25:36;;;;;;;;;;;22.30;83.30;;;;;;4993606;28;19922;-43
2023/07/25 13:28:03;;;;;;;;;;;22.10;84.50;;;;;;4976405;28;19972;-42
2023/07/25 13:30:30;;;;;;;;;;;22.10;88.10;;;;;;4992838;28;19964;-43
2023/07/25 13:32:56;;;;;;;;;;;22.10;89.30;;;;;;4994618;28;19930;-43
2023/07/25 13:35:23;;;;;;;;;;;22.20;89.50;;;;;;4973906;28;19928;-43
2023/07/25 13:37:50;;;;;;;;;;;22.20;88.10;;;;;;4985538;28;20305;-43
2023/07/25 13:40:18;;;;;;;;;;;22.10;88.10;;;;;;4971297;28;19922;-43
2023/07/25 13:42:44;;;;;;;;;;;22.10;86.90;;;;;;4985170;28;19977;-42
2023/07/25 13:45:11;;;;;;;;;;;22.00;86.00;;;;;;4975787;28;20361;-44
2023/07/25 13:47:38;;;;;;;;;;;22.10;88.70;;;;;;4993007;28;19929;-43
2023/07/25 13:50:05;;;;;;;;;;;22.10;88.50;;;;;;4992274;28;19925;-44
2023/07/25 13:52:31;;;;;;;;;;;22.20;90.20;;;;;;4975841;28;19976;-43
2023/07/25 13:54:58;;;;;;;;;;;22.30;85.60;;;;;;4993540;28;19977;-43
2023/07/25 13:57:26;;;;;;;;;;;22.40;86.50;;;;;;4991617;28;19925;-43
2023/07/25 13:59:53;;;;;;;;;;;22.50;84.80;;;;;;4994136;28;19922;-43
2023/07/25 14:02:20;;;;;;;;;;;22.80;86.60;;;;;;4992587;28;19921;-44
2023/07/25 14:04:47;;;;;;;;;;;23.00;84.70;;;;;;4993961;28;19926;-43
2023/07/25 14:07:13;;;;;;;;;;;23.20;84.90;;;;;;4975569;28;20290;-43
2023/07/25 14:09:40;;;;;;;;;;;23.40;83.40;;;;;;4992350;28;19926;-44
2023/07/25 14:12:07;;;;;;;;;;;23.50;83.50;;;;;;4992583;28;19930;-43
2023/07/25 14:14:35;;;;;;;;;;;23.50;82.50;;;;;;4992800;28;20369;-42